LPPT/LIS METAR and TAF weather

Enter ICAO airport designator
Station Type Date Time Source
LPPT METAR 2020/01/29 12:30 UTC NOAA

LPPT 291230Z 20011KT 9999 FEW012 BKN016 15/13 Q1025


Station Type Date Time Source
LPPT Decoded METAR 2020/01/29 12:30 UTC NOAA

Lisboa / Portela, Portugal (LPPT) 38-46N 009-08W 123M
Jan 29, 2020 - 07:30 AM EST / 2020.01.29 1230 UTC
Wind: from the SSW (200 degrees) at 13 MPH (11 KT):0
Visibility: greater than 7 mile(s):0
Sky conditions: mostly cloudy
Temperature: 59 F (15 C)
Dew Point: 55 F (13 C)
Relative Humidity: 87%
Pressure (altimeter): 30.27 in. Hg (1025 hPa)
ob: LPPT 291230Z 20011KT 9999 FEW012 BKN016 15/13 Q1025
cycle: 12

Station Type Date Time Source
LPPT TAF 2020/01/29 12:18 UTC NOAA

TAF LPPT 291100Z 2912/3018 21010KT 9999 SCT008 BKN018 PROB40
TEMPO 2912/2916 5000 -DZ BR SCT004 BKN008
BECMG 2916/2918 SCT012 BKN030
BECMG 3004/3006 SCT006 BKN012
TEMPO 3006/3018 5000 -DZ BR SCT003 BKN006
BECMG 3009/3012 21013KT

Example: see airport list